Time;durP1;ratioP1;P1;durP2;ratioP2;P2;SDS_P1;SDS_P2;PMS_P1;PMS_P2;Temp;Humidity;BMP_temperature;BMP_pressure;BME280_temperature;BME280_humidity;BME280_pressure;Samples;Min_cycle;Max_cycle;Signal;HPM_P1;HPM_P2
2021/03/25 00:09:26;;;;;;;0.47;0.47;;;10.30;99.90;;;;;;20600443;28;20570;-71
2021/03/25 00:19:30;;;;;;;1.27;0.83;;;10.00;99.90;;;;;;20610601;28;20199;-71
2021/03/25 00:29:32;;;;;;;0.67;0.67;;;9.80;99.90;;;;;;20600677;28;20692;-70
2021/03/25 00:39:36;;;;;;;2.97;1.47;;;9.70;99.90;;;;;;20601172;28;20191;-72
2021/03/25 00:49:38;;;;;;;0.87;0.87;;;9.60;99.90;;;;;;20615678;28;20643;-72
2021/03/25 00:59:42;;;;;;;0.93;0.57;;;9.50;99.90;;;;;;20610403;23;20222;-70
2021/03/25 01:09:45;;;;;;;6.20;1.27;;;9.60;99.90;;;;;;20776236;28;20304;-70
2021/03/25 01:19:48;;;;;;;0.73;0.73;;;9.80;99.90;;;;;;20800123;28;20288;-69
2021/03/25 01:29:50;;;;;;;1.47;0.43;;;9.80;99.90;;;;;;20857048;28;20230;-70
2021/03/25 01:39:55;;;;;;;2.20;0.67;;;10.00;99.90;;;;;;20857726;28;20197;-70
2021/03/25 01:49:57;;;;;;;0.33;0.30;;;9.60;99.90;;;;;;20866093;28;20221;-70
2021/03/25 02:10:36;;;;;;;1.17;1.07;;;9.30;99.90;;;;;;20449848;29;20224;-72
2021/03/25 02:21:16;;;;;;;0.63;0.63;;;9.60;99.90;;;;;;20787657;22;20265;-73
2021/03/25 02:31:25;;;;;;;1.00;0.60;;;9.50;99.90;;;;;;20603738;23;20235;-72
2021/03/25 02:41:32;;;;;;;1.27;1.17;;;9.30;99.90;;;;;;20545528;28;20200;-73
2021/03/25 02:51:39;;;;;;;0.47;0.47;;;9.20;99.90;;;;;;20608328;28;20224;-71
2021/03/25 03:01:48;;;;;;;0.57;0.57;;;9.10;99.90;;;;;;20641964;22;20238;-70
2021/03/25 03:11:55;;;;;;;7.63;1.20;;;8.90;99.90;;;;;;20620909;28;20470;-71
2021/03/25 03:22:00;;;;;;;1.50;1.07;;;9.10;99.90;;;;;;20744941;28;20677;-71
2021/03/25 03:32:12;;;;;;;1.60;0.93;;;9.10;99.90;;;;;;20782652;28;20299;-70
2021/03/25 03:42:18;;;;;;;7.23;3.07;;;9.10;99.90;;;;;;20782523;28;20194;-70
2021/03/25 03:52:25;;;;;;;0.70;0.70;;;9.10;99.90;;;;;;20765313;28;20218;-70
2021/03/25 04:02:35;;;;;;;1.03;0.93;;;9.30;99.90;;;;;;20793490;22;20609;-70
2021/03/25 04:12:41;;;;;;;0.83;0.83;;;9.40;99.90;;;;;;20777449;28;20232;-72
2021/03/25 04:22:48;;;;;;;0.70;0.50;;;9.50;99.90;;;;;;20828978;28;20194;-72
2021/03/25 04:32:51;;;;;;;1.60;0.40;;;9.50;99.90;;;;;;20861808;28;20229;-71
2021/03/25 04:42:54;;;;;;;0.87;0.73;;;9.70;99.90;;;;;;20858837;28;20205;-73
2021/03/25 04:53:07;;;;;;;2.73;1.23;;;10.10;99.90;;;;;;20860638;28;20233;-75
2021/03/25 05:03:19;;;;;;;0.93;0.83;;;10.60;99.90;;;;;;20859979;28;20229;-72
2021/03/25 05:13:27;;;;;;;1.70;0.63;;;10.60;99.90;;;;;;20835851;28;20220;-74
2021/03/25 05:23:41;;;;;;;1.20;1.10;;;10.20;99.90;;;;;;20857354;28;20668;-72
2021/03/25 05:33:51;;;;;;;1.90;0.83;;;10.00;99.90;;;;;;20855232;28;20393;-71
2021/03/25 05:44:26;;;;;;;1.63;1.53;;;9.80;99.90;;;;;;20853118;28;20668;-72
2021/03/25 05:54:50;;;;;;;1.07;0.77;;;9.50;99.90;;;;;;20858445;28;20588;-74
2021/03/25 06:04:53;;;;;;;0.20;0.20;;;9.20;99.90;;;;;;20870875;28;20229;-74
2021/03/25 06:15:05;;;;;;;1.50;1.40;;;9.30;99.90;;;;;;20835532;28;20221;-75
2021/03/25 06:25:43;;;;;;;0.40;0.37;;;9.60;99.90;;;;;;20849037;28;20189;-74
2021/03/25 06:35:50;;;;;;;1.17;1.07;;;9.50;99.90;;;;;;20850079;28;20495;-73
2021/03/25 06:45:58;;;;;;;1.30;0.90;;;10.30;99.90;;;;;;20846866;28;20395;-73
2021/03/25 06:56:05;;;;;;;1.57;0.70;;;10.70;99.90;;;;;;20863878;28;20370;-72
2021/03/25 07:06:09;;;;;;;0.37;0.37;;;11.10;99.90;;;;;;20861441;28;20299;-74
2021/03/25 07:16:14;;;;;;;0.30;0.30;;;11.80;99.90;;;;;;20862469;28;20577;-73
2021/03/25 07:26:26;;;;;;;0.70;0.70;;;12.20;99.90;;;;;;20864683;28;20568;-74
2021/03/25 07:36:30;;;;;;;1.73;1.27;;;12.50;99.90;;;;;;20860845;28;20225;-74
2021/03/25 07:46:36;;;;;;;1.23;1.17;;;12.90;99.90;;;;;;20862543;28;20192;-76
2021/03/25 07:57:02;;;;;;;2.43;2.23;;;13.30;99.90;;;;;;20861206;28;20228;-73
2021/03/25 08:07:08;;;;;;;1.50;1.00;;;13.40;99.90;;;;;;20857641;28;20221;-73
2021/03/25 08:17:30;;;;;;;2.63;1.70;;;13.60;99.90;;;;;;20860461;28;20298;-76
2021/03/25 08:27:48;;;;;;;3.47;1.97;;;13.80;99.90;;;;;;20857810;28;20204;-72
2021/03/25 08:38:03;;;;;;;3.03;2.23;;;14.10;99.90;;;;;;20844436;28;20197;-74
2021/03/25 08:48:13;;;;;;;3.80;1.77;;;14.60;99.90;;;;;;20847897;28;20312;-73
2021/03/25 08:58:20;;;;;;;14.53;2.57;;;14.70;99.90;;;;;;20754369;28;21347;-73
2021/03/25 09:08:25;;;;;;;3.10;1.77;;;14.80;99.90;;;;;;20752423;28;20409;-73
2021/03/25 09:18:33;;;;;;;0.97;0.97;;;15.00;99.90;;;;;;20753196;28;20576;-74
2021/03/25 09:29:06;;;;;;;19.00;2.70;;;15.40;99.90;;;;;;20769415;28;20230;-73
2021/03/25 09:39:34;;;;;;;4.73;3.37;;;15.30;99.90;;;;;;20767917;28;20198;-73
2021/03/25 09:49:41;;;;;;;7.17;3.47;;;15.30;99.90;;;;;;20749072;28;20698;-72
2021/03/25 09:59:51;;;;;;;5.07;3.03;;;15.60;99.90;;;;;;20766028;28;20242;-74
2021/03/25 10:10:35;;;;;;;3.60;3.00;;;15.80;99.90;;;;;;20765720;28;20525;-72
2021/03/25 10:20:52;;;;;;;3.20;2.50;;;16.20;99.90;;;;;;20763951;28;20551;-75
2021/03/25 10:30:57;;;;;;;1.50;1.33;;;16.30;99.90;;;;;;20763044;28;20224;-69
2021/03/25 10:41:03;;;;;;;2.00;1.80;;;16.10;99.90;;;;;;20767583;28;20259;-69
2021/03/25 10:51:08;;;;;;;1.77;1.20;;;16.10;99.90;;;;;;20761605;28;20347;-70
2021/03/25 11:01:22;;;;;;;1.83;1.70;;;16.90;99.90;;;;;;20756081;28;20229;-69
2021/03/25 11:11:26;;;;;;;3.90;2.03;;;17.10;99.90;;;;;;20777440;28;20226;-70
2021/03/25 11:21:34;;;;;;;1.77;1.67;;;17.50;99.90;;;;;;20761412;28;20186;-70
2021/03/25 11:31:38;;;;;;;1.90;1.73;;;18.00;99.90;;;;;;20755711;28;20279;-67
2021/03/25 11:41:44;;;;;;;2.17;2.00;;;18.00;99.90;;;;;;20775469;28;20636;-69
2021/03/25 11:51:58;;;;;;;2.20;2.00;;;17.90;99.90;;;;;;20773567;28;20248;-71
2021/03/25 12:02:33;;;;;;;1.90;1.23;;;19.10;99.90;;;;;;20771658;28;20595;-67
2021/03/25 12:12:42;;;;;;;2.87;1.90;;;18.80;99.90;;;;;;20755072;28;20674;-70
2021/03/25 12:22:46;;;;;;;2.03;1.57;;;19.80;99.90;;;;;;20822756;28;20198;-69
2021/03/25 12:32:49;;;;;;;4.03;1.97;;;19.70;99.90;;;;;;20811932;28;20312;-66
2021/03/25 12:42:56;;;;;;;1.10;1.00;;;21.00;99.90;;;;;;20768476;28;20198;-71
2021/03/25 12:52:59;;;;;;;1.63;1.07;;;20.60;99.90;;;;;;20773344;28;20267;-73
2021/03/25 13:03:03;;;;;;;1.73;1.63;;;21.90;99.90;;;;;;20751828;28;20222;-73
2021/03/25 13:13:06;;;;;;;1.37;1.00;;;21.10;99.90;;;;;;20755878;28;20585;-76
2021/03/25 13:23:10;;;;;;;1.77;1.10;;;21.70;99.90;;;;;;20772411;28;20204;-74
2021/03/25 13:33:14;;;;;;;1.50;0.97;;;21.80;99.90;;;;;;20746475;28;20379;-71
2021/03/25 13:43:21;;;;;;;1.40;1.17;;;22.50;99.90;;;;;;20766872;28;20198;-73
2021/03/25 13:53:23;;;;;;;0.80;0.80;;;20.50;99.90;;;;;;20767314;28;20222;-70
2021/03/25 14:03:27;;;;;;;2.10;0.93;;;21.00;99.90;;;;;;20765887;28;20375;-72
2021/03/25 14:13:30;;;;;;;1.67;1.07;;;21.70;99.90;;;;;;20732248;28;20245;-69
2021/03/25 14:23:34;;;;;;;1.13;1.10;;;22.80;99.90;;;;;;20795363;28;20205;-68
2021/03/25 14:33:38;;;;;;;1.33;1.23;;;24.20;99.90;;;;;;20778471;28;20240;-67
2021/03/25 14:43:43;;;;;;;5.38;1.90;;;24.00;99.90;;;;;;20779185;28;20512;-68
2021/03/25 14:53:45;;;;;;;0.50;0.50;;;24.00;99.90;;;;;;20779436;28;21033;-68
2021/03/25 15:03:49;;;;;;;1.40;1.30;;;23.90;99.90;;;;;;20712256;28;20230;-69
2021/03/25 15:13:52;;;;;;;2.67;1.47;;;22.10;99.90;;;;;;20702902;28;20245;-67
2021/03/25 15:23:56;;;;;;;1.17;1.07;;;21.60;99.90;;;;;;20761063;28;20204;-68
2021/03/25 15:33:59;;;;;;;2.00;0.77;;;22.50;99.90;;;;;;20774509;28;20268;-67
2021/03/25 15:44:04;;;;;;;1.43;1.33;;;21.40;99.90;;;;;;20773348;28;20269;-66
2021/03/25 15:54:11;;;;;;;1.10;1.00;;;20.40;99.90;;;;;;20772652;28;20647;-69
2021/03/25 16:04:16;;;;;;;2.17;1.80;;;21.60;99.90;;;;;;20754988;28;20229;-67
2021/03/25 16:14:19;;;;;;;1.43;1.07;;;20.00;99.90;;;;;;20769150;28;20588;-68
2021/03/25 16:24:22;;;;;;;0.60;0.60;;;18.40;99.90;;;;;;20772923;28;20321;-69
2021/03/25 16:34:25;;;;;;;1.33;1.00;;;17.70;99.90;;;;;;20770595;28;20279;-68
2021/03/25 16:44:30;;;;;;;2.10;1.27;;;17.40;99.90;;;;;;20755096;28;20444;-69
2021/03/25 16:54:34;;;;;;;1.73;1.60;;;17.20;99.90;;;;;;20751168;28;20221;-72
2021/03/25 17:04:37;;;;;;;1.77;0.93;;;17.10;99.90;;;;;;20735288;28;20226;-69
2021/03/25 17:14:41;;;;;;;1.90;1.03;;;16.60;99.90;;;;;;20768489;28;20237;-69
2021/03/25 17:24:45;;;;;;;0.83;0.67;;;16.80;99.90;;;;;;20779913;28;20202;-70
2021/03/25 17:34:50;;;;;;;1.63;1.43;;;16.70;99.90;;;;;;20769528;28;20229;-68
2021/03/25 17:44:56;;;;;;;1.70;1.60;;;16.60;99.90;;;;;;20771812;28;20226;-70
2021/03/25 17:54:59;;;;;;;0.90;0.90;;;16.20;99.90;;;;;;20749091;28;20249;-68
2021/03/25 18:05:04;;;;;;;3.00;1.93;;;15.60;99.90;;;;;;20769096;28;20288;-68
2021/03/25 18:15:08;;;;;;;1.47;1.17;;;15.30;99.90;;;;;;20766014;28;20229;-69
2021/03/25 18:25:16;;;;;;;0.47;0.47;;;15.00;99.90;;;;;;20782862;28;20196;-69
2021/03/25 18:35:26;;;;;;;1.20;1.10;;;14.80;99.90;;;;;;20765737;28;20253;-67
2021/03/25 18:45:32;;;;;;;0.80;0.70;;;14.40;99.90;;;;;;20767693;28;20198;-69
2021/03/25 18:55:36;;;;;;;1.03;0.90;;;14.10;99.90;;;;;;20769341;28;20254;-67
2021/03/25 19:05:43;;;;;;;1.30;0.97;;;14.20;99.90;;;;;;20770994;28;20226;-71
2021/03/25 19:15:48;;;;;;;0.80;0.77;;;14.20;99.90;;;;;;20784949;28;20232;-72
2021/03/25 19:25:58;;;;;;;0.70;0.30;;;14.10;99.90;;;;;;20858202;28;20189;-73
2021/03/25 19:36:02;;;;;;;0.53;0.53;;;13.90;99.90;;;;;;20858846;28;20686;-72
2021/03/25 19:46:07;;;;;;;14.90;1.73;;;13.70;99.90;;;;;;20776502;28;20305;-71
2021/03/25 19:56:12;;;;;;;2.60;1.27;;;13.80;99.90;;;;;;20754614;28;20245;-73
2021/03/25 20:06:16;;;;;;;1.33;1.23;;;13.90;99.90;;;;;;20757309;28;20237;-74
2021/03/25 20:16:19;;;;;;;2.07;1.90;;;13.80;99.90;;;;;;20777881;28;20233;-73
2021/03/25 20:26:25;;;;;;;2.53;1.23;;;13.50;99.90;;;;;;20859159;28;20287;-73
2021/03/25 20:36:28;;;;;;;0.60;0.60;;;13.20;99.90;;;;;;20812666;28;20241;-72
2021/03/25 20:46:33;;;;;;;0.33;0.27;;;13.20;99.90;;;;;;20755437;28;20770;-74
2021/03/25 20:56:36;;;;;;;0.57;0.57;;;12.60;99.90;;;;;;20752852;28;20308;-73
2021/03/25 21:06:39;;;;;;;1.97;1.77;;;12.50;99.90;;;;;;20753198;28;20214;-73
2021/03/25 21:16:44;;;;;;;2.43;2.33;;;12.20;99.90;;;;;;20773474;28;20669;-78
2021/03/25 21:26:47;;;;;;;0.67;0.67;;;12.10;99.90;;;;;;20774057;28;20209;-75
2021/03/25 21:36:50;;;;;;;3.50;2.73;;;11.80;99.90;;;;;;20758925;28;20584;-74
2021/03/25 21:46:53;;;;;;;1.43;1.33;;;11.70;99.90;;;;;;20719629;28;20190;-75
2021/03/25 21:56:56;;;;;;;1.20;1.20;;;11.60;99.90;;;;;;20694107;28;20227;-76
2021/03/25 22:07:00;;;;;;;1.90;1.80;;;11.80;99.90;;;;;;20775962;28;20226;-76
2021/03/25 22:17:04;;;;;;;3.93;2.93;;;12.10;99.90;;;;;;20774064;28;20221;-71
2021/03/25 22:27:08;;;;;;;5.87;3.57;;;12.10;99.90;;;;;;20856141;28;20193;-71
2021/03/25 22:37:11;;;;;;;3.03;2.33;;;11.80;99.90;;;;;;20808908;28;20222;-73
2021/03/25 22:47:14;;;;;;;2.87;2.63;;;11.90;99.90;;;;;;20791256;28;20228;-72
2021/03/25 22:57:19;;;;;;;4.63;1.53;;;12.00;99.90;;;;;;20786417;28;20237;-72
2021/03/25 23:07:22;;;;;;;1.37;1.33;;;12.00;99.90;;;;;;20769696;28;20937;-71
2021/03/25 23:17:26;;;;;;;8.00;0.73;;;11.90;99.90;;;;;;20768328;28;20318;-71
2021/03/25 23:27:30;;;;;;;2.77;0.80;;;12.00;99.90;;;;;;20795180;28;20205;-73
2021/03/25 23:37:33;;;;;;;2.20;1.97;;;12.00;99.90;;;;;;20709041;28;20818;-71
2021/03/25 23:47:36;;;;;;;0.53;0.53;;;12.00;99.90;;;;;;20705576;28;20205;-71
2021/03/25 23:57:40;;;;;;;5.87;1.80;;;11.90;99.90;;;;;;20699831;28;20284;-72
